Time;durP1;ratioP1;P1;durP2;ratioP2;P2;SDS_P1;SDS_P2;PMS_P1;PMS_P2;Temp;Humidity;BMP_temperature;BMP_pressure;BME280_temperature;BME280_humidity;BME280_pressure;Samples;Min_cycle;Max_cycle;Signal;HPM_P1;HPM_P2
2022/06/12 00:00:56;;;;;;;2.95;1.00;;;23.60;91.80;;;;;;5052208;28;20091;-48
2022/06/12 00:03:28;;;;;;;5.95;1.13;;;23.40;92.30;;;;;;5051851;28;20056;-47
2022/06/12 00:05:56;;;;;;;1.95;0.93;;;23.50;58.90;;;;;;5052140;28;20052;-47
2022/06/12 00:08:22;;;;;;;2.97;1.00;;;;;;;;;;5052120;28;20020;-47
2022/06/12 00:10:50;;;;;;;2.88;1.10;;;23.30;92.30;;;;;;5052305;28;20025;-49
2022/06/12 00:13:21;;;;;;;3.47;1.08;;;23.20;92.20;;;;;;5052098;28;20517;-48
2022/06/12 00:15:47;;;;;;;4.93;1.08;;;23.20;92.40;;;;;;5051907;28;20028;-47
2022/06/12 00:18:13;;;;;;;3.88;1.02;;;23.60;85.00;;;;;;5052014;28;20125;-48
2022/06/12 00:20:39;;;;;;;3.55;1.10;;;23.70;92.60;;;;;;5052056;28;20503;-48
2022/06/12 00:23:08;;;;;;;3.58;1.13;;;23.80;92.60;;;;;;5051904;28;20423;-47
2022/06/12 00:25:34;;;;;;;2.58;0.98;;;;;;;;;;5051900;28;20036;-49
2022/06/12 00:28:00;;;;;;;2.92;0.80;;;;;;;;;;5051945;28;20036;-48
2022/06/12 00:30:26;;;;;;;4.32;1.00;;;23.40;56.30;;;;;;5051855;28;20104;-47
2022/06/12 00:32:54;;;;;;;2.80;0.98;;;23.50;59.10;;;;;;5051909;28;20024;-47
2022/06/12 00:35:28;;;;;;;2.92;0.88;;;23.70;92.40;;;;;;5051748;28;20032;-47
2022/06/12 00:37:53;;;;;;;4.22;1.13;;;;;;;;;;5055075;28;20040;-48
2022/06/12 00:40:20;;;;;;;2.70;0.70;;;;;;;;;;5055832;28;20032;-47
2022/06/12 00:42:53;;;;;;;3.38;1.00;;;23.40;59.20;;;;;;5056163;28;20028;-48
2022/06/12 00:45:32;;;;;;;3.88;1.20;;;23.70;92.50;;;;;;5055823;28;20025;-46
2022/06/12 00:47:59;;;;;;;3.60;0.90;;;23.50;57.10;;;;;;5055799;28;20029;-47
2022/06/12 00:50:25;;;;;;;1.80;0.77;;;23.70;92.30;;;;;;5055752;28;20059;-47
2022/06/12 00:52:52;;;;;;;1.67;0.82;;;23.70;92.40;;;;;;5056009;28;20025;-47
2022/06/12 00:55:37;;;;;;;2.15;0.85;;;23.20;92.30;;;;;;5055877;28;20021;-48
2022/06/12 00:58:07;;;;;;;4.10;1.33;;;23.20;92.30;;;;;;5055533;28;20033;-47
2022/06/12 01:00:33;;;;;;;4.18;0.88;;;23.30;59.20;;;;;;5055578;28;20108;-47
2022/06/12 01:03:00;;;;;;;1.73;0.80;;;;;;;;;;5055273;28;20040;-47
2022/06/12 01:08:13;;;;;;;2.05;0.80;;;23.40;57.90;;;;;;5055839;28;20040;-47
2022/06/12 01:10:41;;;;;;;3.00;0.93;;;22.90;92.40;;;;;;5055380;28;20029;-47
2022/06/12 01:13:15;;;;;;;2.13;1.00;;;23.30;59.40;;;;;;5055336;28;20079;-47
2022/06/12 01:15:51;;;;;;;2.13;0.90;;;23.30;59.60;;;;;;5055317;28;20032;-47
2022/06/12 01:18:22;;;;;;;4.05;1.42;;;23.30;92.50;;;;;;5055249;28;20435;-47
2022/06/12 01:21:07;;;;;;;3.03;1.23;;;23.30;54.90;;;;;;5055141;28;20056;-47
2022/06/12 01:24:08;;;;;;;2.92;1.10;;;23.10;92.60;;;;;;5055205;28;20025;-48
2022/06/12 01:26:42;;;;;;;3.25;1.10;;;23.30;54.90;;;;;;5044040;28;20496;-47
2022/06/12 01:29:19;;;;;;;2.30;0.90;;;26.10;56.60;;;;;;5054987;28;20029;-47
2022/06/12 01:32:13;;;;;;;3.00;0.98;;;23.10;92.40;;;;;;5055071;28;20103;-49
2022/06/12 01:35:05;;;;;;;4.13;0.80;;;23.20;58.00;;;;;;5054945;28;20025;-47
2022/06/12 01:37:59;;;;;;;2.17;0.90;;;23.20;81.10;;;;;;5054750;28;20037;-48
2022/06/12 01:40:54;;;;;;;3.65;1.23;;;23.20;55.00;;;;;;5054930;28;20033;-47
2022/06/12 01:43:56;;;;;;;3.63;1.20;;;23.10;55.00;;;;;;5047865;28;20041;-47
2022/06/12 01:46:27;;;;;;;2.20;0.80;;;23.20;59.70;;;;;;5054748;28;20131;-47
2022/06/12 01:49:24;;;;;;;2.65;1.00;;;23.00;92.50;;;;;;5053461;28;20036;-48
2022/06/12 01:51:58;;;;;;;2.80;1.02;;;23.40;92.60;;;;;;5054686;28;20040;-47
2022/06/12 01:54:47;;;;;;;3.10;1.10;;;23.20;56.80;;;;;;5054624;28;20412;-48
2022/06/12 01:57:28;;;;;;;6.10;1.30;;;23.30;92.40;;;;;;5054510;28;20172;-48
2022/06/12 01:59:54;;;;;;;2.97;1.08;;;;;;;;;;5054559;28;20029;-47
2022/06/12 02:02:43;;;;;;;2.75;0.95;;;22.90;90.90;;;;;;5054502;28;20033;-46
2022/06/12 02:05:19;;;;;;;5.32;1.02;;;23.30;92.40;;;;;;5054268;28;20045;-48
2022/06/12 02:07:48;;;;;;;4.28;0.85;;;23.30;92.30;;;;;;5054351;28;20099;-48
2022/06/12 02:10:34;;;;;;;4.78;1.10;;;23.00;86.90;;;;;;5054223;28;20060;-46
2022/06/12 02:13:29;;;;;;;3.05;1.08;;;23.10;55.10;;;;;;5054504;28;20401;-49
2022/06/12 02:16:15;;;;;;;6.50;1.30;;;23.10;92.10;;;;;;5051873;28;20044;-47
2022/06/12 02:18:46;;;;;;;2.20;0.88;;;23.00;81.10;;;;;;5054163;28;20076;-47
2022/06/12 02:21:29;;;;;;;2.03;0.75;;;23.40;61.30;;;;;;5054440;28;20021;-47
2022/06/12 02:24:00;;;;;;;4.38;1.08;;;23.20;92.20;;;;;;5054076;28;20052;-47
2022/06/12 02:26:37;;;;;;;2.83;0.90;;;23.10;92.10;;;;;;5054324;28;20032;-47
2022/06/12 02:29:20;;;;;;;2.58;1.00;;;23.10;92.30;;;;;;5053905;28;20272;-47
2022/06/12 02:31:49;;;;;;;3.13;1.10;;;23.00;92.10;;;;;;5053816;28;20029;-48
2022/06/12 02:34:25;;;;;;;3.47;1.15;;;23.00;92.10;;;;;;5053891;28;20476;-47
2022/06/12 02:36:57;;;;;;;4.75;1.15;;;23.30;92.20;;;;;;5053791;28;20400;-47
2022/06/12 02:39:36;;;;;;;3.15;1.08;;;23.20;92.10;;;;;;5053846;28;20025;-47
2022/06/12 02:42:07;;;;;;;2.45;1.10;;;23.10;59.00;;;;;;5053723;28;20056;-46
2022/06/12 02:44:55;;;;;;;3.42;0.90;;;22.70;92.00;;;;;;5053657;28;20107;-48
2022/06/12 02:47:24;;;;;;;2.17;1.02;;;23.00;90.80;;;;;;5035692;28;20040;-48
2022/06/12 02:49:53;;;;;;;3.97;1.20;;;23.10;59.10;;;;;;5053559;28;20017;-47
2022/06/12 02:52:34;;;;;;;3.85;1.33;;;23.00;92.00;;;;;;5053538;28;20033;-48
2022/06/12 02:55:37;;;;;;;4.32;1.58;;;23.60;55.60;;;;;;5053664;28;20021;-47
2022/06/12 02:58:03;;;;;;;2.30;0.90;;;;;;;;;;5053382;28;20488;-48
2022/06/12 03:00:38;;;;;;;2.78;1.10;;;23.10;92.00;;;;;;5052995;28;20100;-50
2022/06/12 03:03:09;;;;;;;3.30;1.17;;;22.90;74.90;;;;;;5053000;28;20033;-48
2022/06/12 03:05:39;;;;;;;2.55;1.10;;;23.10;91.90;;;;;;5053344;28;20041;-48
2022/06/12 03:08:17;;;;;;;3.15;1.10;;;23.10;58.90;;;;;;5053156;28;20103;-47
2022/06/12 03:10:48;;;;;;;3.53;1.10;;;23.20;91.90;;;;;;5053154;28;20032;-48
2022/06/12 03:13:16;;;;;;;3.35;1.00;;;22.80;91.70;;;;;;5053109;28;20028;-48
2022/06/12 03:15:41;;;;;;;2.88;1.10;;;;;;;;;;5053151;28;20044;-47
2022/06/12 03:18:12;;;;;;;3.67;1.20;;;23.30;91.80;;;;;;5052890;28;20037;-48
2022/06/12 03:21:03;;;;;;;2.28;0.80;;;23.10;82.50;;;;;;5053041;28;20017;-49
2022/06/12 03:23:40;;;;;;;;;;;23.00;55.80;;;;;;5053368;28;20037;-48
2022/06/12 03:26:10;;;;;;;3.90;1.10;;;22.60;64.80;;;;;;5052758;28;19928;-48
2022/06/12 03:28:52;;;;;;;3.30;0.98;;;23.00;55.30;;;;;;5052768;28;20025;-47
2022/06/12 03:31:24;;;;;;;2.92;1.08;;;23.10;59.10;;;;;;5052830;28;20388;-48
2022/06/12 03:34:16;;;;;;;2.50;0.73;;;23.00;55.30;;;;;;5052815;28;20033;-49
2022/06/12 03:36:52;;;;;;;4.65;1.38;;;23.10;63.80;;;;;;5052674;28;20078;-47
2022/06/12 03:39:35;;;;;;;2.28;1.10;;;23.00;55.30;;;;;;5052877;28;20108;-47
2022/06/12 03:42:11;;;;;;;3.58;1.20;;;23.00;92.10;;;;;;5052799;28;20057;-47
2022/06/12 03:44:44;;;;;;;4.30;1.17;;;23.30;92.20;;;;;;5052883;28;20021;-47
2022/06/12 03:47:19;;;;;;;2.22;0.98;;;22.90;87.70;;;;;;5052509;28;20491;-47
2022/06/12 03:50:19;;;;;;;3.03;1.20;;;23.00;92.10;;;;;;5052799;28;20021;-48
2022/06/12 03:52:56;;;;;;;4.32;0.95;;;23.30;92.10;;;;;;5052508;28;20083;-48
2022/06/12 03:58:26;;;;;;;4.25;1.20;;;23.10;92.10;;;;;;5052480;28;20044;-46
2022/06/12 04:00:53;;;;;;;2.83;1.15;;;22.60;59.00;;;;;;5052336;28;20067;-47
2022/06/12 04:03:24;;;;;;;3.92;1.10;;;23.10;92.10;;;;;;5052000;28;20040;-47
2022/06/12 04:05:56;;;;;;;3.72;1.23;;;23.00;55.40;;;;;;5052234;28;20025;-48
2022/06/12 04:08:27;;;;;;;3.40;1.20;;;23.00;59.10;;;;;;5034261;28;20438;-48
2022/06/12 04:10:54;;;;;;;3.97;0.90;;;23.10;92.10;;;;;;5051841;28;20029;-48
2022/06/12 04:13:20;;;;;;;3.28;1.15;;;23.00;59.00;;;;;;5051832;28;20021;-47
2022/06/12 04:16:01;;;;;;;4.47;1.02;;;23.00;55.30;;;;;;5052074;28;20044;-47
2022/06/12 04:18:29;;;;;;;6.22;1.67;;;23.00;92.20;;;;;;5052096;28;20067;-47
2022/06/12 04:21:07;;;;;;;3.03;1.00;;;23.00;91.50;;;;;;5052012;28;20017;-48
2022/06/12 04:23:50;;;;;;;4.00;1.38;;;23.20;92.30;;;;;;5052095;28;20029;-47
2022/06/12 04:26:33;;;;;;;3.17;1.20;;;23.20;57.40;;;;;;5052007;28;20040;-48
2022/06/12 04:29:10;;;;;;;2.33;1.02;;;23.00;92.30;;;;;;5052078;28;20055;-47
2022/06/12 04:31:38;;;;;;;6.57;1.35;;;22.70;92.00;;;;;;5052025;28;20082;-47
2022/06/12 04:34:23;;;;;;;3.65;1.20;;;23.00;55.50;;;;;;5051980;28;20040;-48
2022/06/12 04:36:54;;;;;;;3.25;1.23;;;23.20;92.30;;;;;;5052074;28;20102;-48
2022/06/12 04:39:25;;;;;;;4.40;1.33;;;22.90;59.40;;;;;;5051782;28;20067;-48
2022/06/12 04:41:51;;;;;;;3.80;1.40;;;23.20;92.30;;;;;;5051946;28;20048;-47
2022/06/12 04:44:19;;;;;;;5.28;1.30;;;23.00;92.30;;;;;;5051813;28;20499;-47
2022/06/12 04:46:47;;;;;;;3.55;1.10;;;23.00;92.40;;;;;;5051785;28;20142;-47
2022/06/12 04:49:16;;;;;;;5.18;1.25;;;23.00;92.30;;;;;;5051671;28;20040;-48
2022/06/12 04:51:42;;;;;;;2.80;1.27;;;22.90;92.30;;;;;;5051768;28;20495;-46
2022/06/12 04:54:09;;;;;;;3.78;1.40;;;;;;;;;;5051654;28;20053;-48
2022/06/12 04:56:34;;;;;;;4.80;1.13;;;22.90;92.10;;;;;;5051542;28;20033;-48
2022/06/12 04:59:02;;;;;;;2.85;1.02;;;22.90;92.00;;;;;;5051899;28;20014;-48
2022/06/12 05:01:28;;;;;;;3.17;0.98;;;22.60;92.00;;;;;;5051700;28;20380;-49
2022/06/12 05:03:56;;;;;;;2.65;0.80;;;;;;;;;;5051366;28;20041;-47
2022/06/12 05:06:22;;;;;;;4.95;1.77;;;;;;;;;;5051540;28;20056;-48
2022/06/12 05:08:48;;;;;;;4.00;1.35;;;;;;;;;;5051476;28;20083;-47
2022/06/12 05:11:15;;;;;;;3.47;1.30;;;22.50;66.40;;;;;;5051745;28;20025;-47
2022/06/12 05:13:41;;;;;;;2.92;1.42;;;22.50;92.00;;;;;;5051451;28;20480;-48
2022/06/12 05:16:08;;;;;;;6.80;1.60;;;23.20;92.20;;;;;;5051693;28;20017;-47
2022/06/12 05:18:35;;;;;;;4.13;1.20;;;;;;;;;;5051416;28;20387;-47
2022/06/12 05:21:01;;;;;;;4.70;1.30;;;22.60;91.90;;;;;;5051753;28;20436;-47
2022/06/12 05:23:26;;;;;;;4.32;1.08;;;22.90;91.90;;;;;;5053319;28;20060;-47
2022/06/12 05:25:52;;;;;;;5.72;1.60;;;;;;;;;;5055176;28;20116;-47
2022/06/12 05:28:19;;;;;;;3.78;1.33;;;22.90;91.90;;;;;;5055044;28;20029;-47
2022/06/12 05:30:46;;;;;;;2.97;1.10;;;23.10;92.00;;;;;;5055247;28;20025;-48
2022/06/12 05:33:12;;;;;;;1.77;0.90;;;22.90;59.10;;;;;;5055045;28;20028;-47
2022/06/12 05:35:39;;;;;;;4.10;1.45;;;22.90;59.10;;;;;;5054902;28;20028;-48
2022/06/12 05:38:07;;;;;;;3.28;1.17;;;22.90;81.40;;;;;;5054881;28;20094;-47
2022/06/12 05:40:36;;;;;;;6.85;1.50;;;22.90;59.20;;;;;;5054812;28;20478;-48
2022/06/12 05:43:02;;;;;;;3.67;1.15;;;23.00;59.30;;;;;;5054863;28;20021;-47
2022/06/12 05:45:30;;;;;;;4.50;1.23;;;23.00;92.00;;;;;;5055108;28;20044;-47
2022/06/12 05:47:56;;;;;;;3.42;1.27;;;;;;;;;;5054708;28;20041;-47
2022/06/12 05:50:26;;;;;;;6.38;1.52;;;22.90;59.30;;;;;;5054682;28;20052;-47
2022/06/12 05:52:52;;;;;;;4.95;1.35;;;;;;;;;;5054615;28;20115;-48
2022/06/12 05:55:18;;;;;;;4.15;1.40;;;;;;;;;;5054561;28;20052;-47
2022/06/12 05:57:44;;;;;;;4.72;1.38;;;;;;;;;;5054475;28;20052;-48
2022/06/12 06:00:19;;;;;;;4.88;1.52;;;23.00;56.10;;;;;;5054549;28;20414;-47
2022/06/12 06:02:45;;;;;;;4.22;1.33;;;23.00;91.90;;;;;;5054437;28;20020;-47
2022/06/12 06:05:11;;;;;;;4.05;1.67;;;22.80;91.80;;;;;;5054219;28;20060;-47
2022/06/12 06:07:38;;;;;;;4.40;1.33;;;23.20;91.90;;;;;;5054318;28;20464;-47
2022/06/12 06:10:07;;;;;;;4.70;1.40;;;23.00;72.70;;;;;;5054587;28;20040;-47
2022/06/12 06:12:33;;;;;;;3.25;1.23;;;22.90;91.80;;;;;;5054141;28;20032;-47
2022/06/12 06:14:59;;;;;;;2.83;1.27;;;22.90;91.80;;;;;;5054082;28;20376;-48
2022/06/12 06:17:25;;;;;;;3.33;1.10;;;22.80;91.60;;;;;;5054130;28;20052;-47
2022/06/12 06:19:51;;;;;;;3.83;1.17;;;22.90;91.60;;;;;;5054117;28;20029;-47
2022/06/12 06:22:18;;;;;;;2.72;1.20;;;23.00;91.60;;;;;;5054116;28;20025;-47
2022/06/12 06:24:45;;;;;;;3.20;1.17;;;23.00;58.80;;;;;;5054187;28;20017;-47
2022/06/12 06:27:13;;;;;;;2.28;1.05;;;22.50;91.50;;;;;;5054260;28;20534;-47
2022/06/12 06:29:39;;;;;;;3.60;1.20;;;22.90;91.50;;;;;;5054206;28;20549;-47
2022/06/12 06:32:07;;;;;;;8.10;1.60;;;23.00;91.50;;;;;;5054147;28;20115;-48
2022/06/12 06:34:36;;;;;;;3.63;1.05;;;23.00;91.50;;;;;;5053459;28;20040;-47
2022/06/12 06:37:03;;;;;;;3.20;1.25;;;22.80;91.50;;;;;;5053933;28;20138;-48
2022/06/12 06:39:29;;;;;;;4.47;1.40;;;22.80;91.40;;;;;;5053959;28;20032;-47
2022/06/12 06:41:55;;;;;;;5.15;1.55;;;22.90;91.40;;;;;;5053879;28;20021;-46
2022/06/12 06:47:05;;;;;;;4.20;1.27;;;;;;;;;;5053697;28;20110;-46
2022/06/12 06:49:31;;;;;;;10.90;1.42;;;23.30;91.40;;;;;;5053587;28;20029;-48
2022/06/12 06:51:57;;;;;;;4.45;1.35;;;23.20;91.50;;;;;;5053581;28;20025;-47
2022/06/12 06:54:23;;;;;;;4.60;1.10;;;23.30;91.60;;;;;;5053750;28;20096;-48
2022/06/12 06:56:50;;;;;;;10.73;1.45;;;23.10;91.50;;;;;;5053473;28;20407;-48
2022/06/12 06:59:16;;;;;;;5.18;1.50;;;23.10;58.80;;;;;;5053705;28;20021;-46
2022/06/12 07:01:42;;;;;;;4.38;1.23;;;22.70;78.90;;;;;;5053253;28;20541;-47
2022/06/12 07:04:08;;;;;;;5.18;1.45;;;;;;;;;;5035527;28;20088;-47
2022/06/12 07:06:34;;;;;;;4.40;1.65;;;;;;;;;;5053222;28;20025;-46
2022/06/12 07:09:00;;;;;;;4.07;1.60;;;23.10;90.00;;;;;;5053489;28;20091;-46
2022/06/12 07:11:26;;;;;;;3.67;1.08;;;;;;;;;;5053158;28;20476;-46
2022/06/12 07:13:53;;;;;;;2.40;1.08;;;23.10;85.60;;;;;;5053046;28;20033;-47
2022/06/12 07:16:20;;;;;;;4.10;1.15;;;23.00;83.90;;;;;;5053058;28;20412;-46
2022/06/12 07:18:46;;;;;;;4.68;1.25;;;;;;;;;;5053064;28;20100;-46
2022/06/12 07:21:12;;;;;;;4.60;1.70;;;23.10;83.00;;;;;;5052967;28;20029;-46
2022/06/12 07:23:40;;;;;;;5.30;1.05;;;23.10;58.60;;;;;;5052899;28;20037;-46
2022/06/12 07:26:14;;;;;;;4.65;1.30;;;23.20;66.80;;;;;;5052828;28;20120;-47
2022/06/12 07:28:40;;;;;;;5.68;1.30;;;;;;;;;;5052846;28;20039;-46
2022/06/12 07:31:07;;;;;;;4.75;1.30;;;22.60;71.00;;;;;;5052660;28;20506;-46
2022/06/12 07:33:33;;;;;;;2.28;1.10;;;22.60;91.70;;;;;;5052779;28;20029;-48
2022/06/12 07:35:59;;;;;;;3.83;1.58;;;;;;;;;;5052698;28;20029;-46
2022/06/12 07:38:27;;;;;;;3.70;1.20;;;23.10;91.80;;;;;;5052570;28;20041;-46
2022/06/12 07:40:57;;;;;;;1.88;1.20;;;22.70;91.70;;;;;;5052830;28;20074;-47
2022/06/12 07:43:24;;;;;;;3.20;1.10;;;23.10;91.80;;;;;;5053014;28;20021;-48
2022/06/12 07:45:51;;;;;;;4.85;1.50;;;23.00;57.80;;;;;;5052109;28;20035;-47
2022/06/12 07:48:18;;;;;;;5.93;1.20;;;23.20;91.60;;;;;;5052300;28;20025;-47
2022/06/12 07:50:44;;;;;;;2.55;1.00;;;;;;;;;;5052518;28;20029;-47
2022/06/12 07:53:12;;;;;;;3.40;1.13;;;22.70;91.40;;;;;;5052558;28;20054;-49
2022/06/12 07:55:38;;;;;;;11.55;1.60;;;23.20;71.50;;;;;;5052717;28;20503;-47
2022/06/12 07:58:04;;;;;;;6.35;1.52;;;23.40;80.70;;;;;;5052322;28;20041;-48
2022/06/12 08:00:32;;;;;;;9.63;1.60;;;23.00;91.40;;;;;;5052646;28;20075;-48
2022/06/12 08:02:58;;;;;;;6.65;1.40;;;;;;;;;;5052142;28;20111;-47
2022/06/12 08:05:24;;;;;;;3.42;1.20;;;;;;;;;;5052558;28;20032;-48
2022/06/12 08:07:50;;;;;;;3.53;1.42;;;;;;;;;;5052281;28;20043;-49
2022/06/12 08:10:16;;;;;;;7.38;1.60;;;23.30;57.70;;;;;;5052240;28;20029;-45
2022/06/12 08:12:44;;;;;;;5.78;1.40;;;23.30;82.70;;;;;;5052265;28;20036;-45
2022/06/12 08:15:15;;;;;;;4.22;1.50;;;23.20;57.60;;;;;;5052179;28;20033;-45
2022/06/12 08:17:41;;;;;;;4.07;1.30;;;22.60;90.70;;;;;;5052133;28;20056;-46
2022/06/12 08:20:25;;;;;;;3.38;1.35;;;23.40;67.90;;;;;;5052373;28;20385;-45
2022/06/12 08:23:05;;;;;;;3.92;1.52;;;23.30;90.70;;;;;;5052192;28;20033;-46
2022/06/12 08:25:33;;;;;;;4.15;1.48;;;23.10;90.70;;;;;;5052114;28;20077;-46
2022/06/12 08:28:00;;;;;;;6.35;1.70;;;;;;;;;;5052167;28;20400;-45
2022/06/12 08:30:27;;;;;;;7.18;1.70;;;23.20;78.40;;;;;;5052086;28;20388;-44
2022/06/12 08:32:56;;;;;;;6.72;1.45;;;23.30;90.70;;;;;;5052243;28;20025;-45
2022/06/12 08:35:28;;;;;;;5.67;1.57;;;23.10;71.50;;;;;;5052276;28;20411;-45
2022/06/12 08:37:55;;;;;;;3.13;1.30;;;23.20;56.20;;;;;;5051888;28;20306;-46
2022/06/12 08:40:37;;;;;;;4.10;1.80;;;23.50;90.70;;;;;;5051900;28;20104;-44
2022/06/12 08:43:21;;;;;;;4.43;1.45;;;23.40;90.70;;;;;;5051996;28;20036;-45
2022/06/12 08:45:50;;;;;;;3.85;1.33;;;23.50;90.80;;;;;;5051974;28;20078;-46
2022/06/12 08:48:33;;;;;;;4.40;1.35;;;23.60;57.30;;;;;;5051899;28;20104;-45
2022/06/12 08:51:26;;;;;;;6.30;1.80;;;23.60;90.60;;;;;;5051871;28;20163;-45
2022/06/12 08:54:00;;;;;;;6.60;1.80;;;23.50;90.30;;;;;;5043915;28;20119;-45
2022/06/12 08:56:52;;;;;;;3.40;1.27;;;23.70;72.20;;;;;;5033832;28;20029;-45
2022/06/12 08:59:31;;;;;;;3.83;1.52;;;23.90;60.10;;;;;;5055301;28;20484;-44
2022/06/12 09:01:57;;;;;;;3.88;1.55;;;22.70;59.80;;;;;;5055537;28;20120;-48
2022/06/12 09:04:23;;;;;;;6.43;1.50;;;23.60;90.40;;;;;;5055511;28;20116;-47
2022/06/12 09:06:57;;;;;;;4.00;1.27;;;23.50;90.40;;;;;;5055844;28;20029;-48
2022/06/12 09:09:29;;;;;;;4.22;1.63;;;23.80;90.80;;;;;;5055641;28;20049;-48
2022/06/12 09:12:24;;;;;;;4.35;1.60;;;23.90;90.80;;;;;;5055671;28;20049;-48
2022/06/12 09:15:07;;;;;;;3.72;1.10;;;23.80;55.00;;;;;;5055813;28;20025;-48
2022/06/12 09:17:58;;;;;;;2.67;1.30;;;23.80;90.70;;;;;;5055491;28;20466;-48
2022/06/12 09:20:56;;;;;;;3.40;1.30;;;23.90;90.60;;;;;;5017842;28;20094;-47
2022/06/12 09:23:40;;;;;;;5.63;1.20;;;24.10;54.60;;;;;;5011086;28;20037;-47
2022/06/12 09:26:06;;;;;;;4.50;1.02;;;24.30;71.00;;;;;;5055442;28;20021;-48
2022/06/12 09:28:44;;;;;;;4.45;1.23;;;24.40;56.30;;;;;;5055264;28;20029;-47
2022/06/12 09:31:26;;;;;;;3.90;1.15;;;24.40;90.00;;;;;;5055239;28;20650;-48
2022/06/12 09:34:11;;;;;;;3.28;1.20;;;24.80;90.00;;;;;;5055467;28;20426;-48
2022/06/12 09:40:12;;;;;;;3.22;1.27;;;24.80;55.50;;;;;;5034868;28;20082;-46
2022/06/12 09:42:46;;;;;;;2.88;1.02;;;24.80;55.10;;;;;;5055096;28;20059;-47
2022/06/12 09:45:26;;;;;;;2.30;1.10;;;24.80;87.70;;;;;;5055101;28;20033;-47
2022/06/12 09:48:05;;;;;;;4.40;1.20;;;25.00;56.40;;;;;;5055003;28;20095;-48
2022/06/12 09:50:46;;;;;;;1.35;0.70;;;25.30;89.60;;;;;;5054957;28;20364;-48
2022/06/12 09:53:12;;;;;;;3.78;0.88;;;;;;;;;;5054782;28;20060;-47
2022/06/12 09:55:46;;;;;;;2.08;1.05;;;25.20;88.10;;;;;;5054721;28;20067;-46
2022/06/12 09:58:26;;;;;;;2.33;0.93;;;25.50;62.60;;;;;;5054740;28;20506;-46
2022/06/12 10:00:58;;;;;;;4.78;0.95;;;25.10;88.80;;;;;;5054793;28;20044;-46
2022/06/12 10:03:39;;;;;;;2.28;0.95;;;25.40;64.00;;;;;;5054514;28;20047;-48
2022/06/12 10:06:28;;;;;;;3.30;1.00;;;25.70;89.30;;;;;;5054917;28;20041;-47
2022/06/12 10:09:26;;;;;;;4.28;0.90;;;25.50;54.70;;;;;;5053936;28;20032;-50
2022/06/12 10:12:08;;;;;;;2.35;1.05;;;25.60;88.80;;;;;;5037221;28;20095;-47
2022/06/12 10:15:09;;;;;;;2.25;1.00;;;25.10;54.70;;;;;;5054393;28;20037;-48
2022/06/12 10:17:47;;;;;;;3.28;1.10;;;26.00;88.60;;;;;;5050156;28;20056;-47
2022/06/12 10:20:20;;;;;;;4.20;1.08;;;25.70;88.60;;;;;;5054397;28;20029;-47
2022/06/12 10:22:50;;;;;;;6.32;0.65;;;25.70;88.30;;;;;;5054305;28;20028;-48
2022/06/12 10:25:24;;;;;;;2.95;1.35;;;25.70;88.30;;;;;;5054545;28;20040;-47
2022/06/12 10:27:54;;;;;;;1.92;0.82;;;25.70;87.80;;;;;;5054221;28;20029;-49
2022/06/12 10:30:26;;;;;;;1.80;0.63;;;25.40;88.00;;;;;;5054478;28;20036;-47
2022/06/12 10:32:54;;;;;;;2.58;1.10;;;25.90;87.90;;;;;;5054002;28;20057;-49
2022/06/12 10:35:22;;;;;;;2.10;0.80;;;25.60;69.40;;;;;;5053965;28;20021;-48
2022/06/12 10:37:49;;;;;;;2.15;0.73;;;25.90;53.70;;;;;;5053958;28;20037;-49
2022/06/12 10:40:18;;;;;;;1.77;0.80;;;26.10;88.10;;;;;;5054024;28;20027;-48
2022/06/12 10:42:45;;;;;;;2.05;0.65;;;25.50;88.20;;;;;;5053863;28;20625;-48
2022/06/12 10:45:20;;;;;;;4.13;0.90;;;25.90;88.30;;;;;;5053906;28;20366;-47
2022/06/12 10:47:47;;;;;;;5.20;1.10;;;26.10;53.60;;;;;;5053773;28;20036;-47
2022/06/12 10:50:13;;;;;;;2.45;1.00;;;26.30;88.50;;;;;;5053795;28;20033;-49
2022/06/12 10:52:55;;;;;;;4.47;0.70;;;26.00;87.90;;;;;;5053730;28;20029;-48
2022/06/12 10:55:32;;;;;;;3.95;0.70;;;26.40;87.40;;;;;;5053757;28;20028;-47
2022/06/12 10:58:16;;;;;;;1.38;0.70;;;26.20;52.20;;;;;;5053609;28;20045;-49
2022/06/12 11:00:46;;;;;;;2.20;0.82;;;25.90;74.00;;;;;;5053466;28;20480;-49
2022/06/12 11:03:20;;;;;;;1.85;0.73;;;26.30;87.40;;;;;;5053320;28;20029;-48
2022/06/12 11:06:01;;;;;;;1.77;0.50;;;26.60;85.80;;;;;;5053758;28;20047;-48
2022/06/12 11:08:32;;;;;;;1.98;0.73;;;26.60;87.20;;;;;;5053460;28;20043;-48
2022/06/12 11:11:37;;;;;;;1.60;0.70;;;26.50;79.90;;;;;;5053388;28;20040;-48
2022/06/12 11:14:04;;;;;;;1.33;0.57;;;26.10;86.40;;;;;;5012267;28;20090;-47
2022/06/12 11:17:10;;;;;;;1.73;0.70;;;26.50;86.80;;;;;;5053231;28;20033;-48
2022/06/12 11:20:03;;;;;;;2.60;0.60;;;26.30;71.40;;;;;;4972247;28;20034;-47
2022/06/12 11:22:39;;;;;;;1.50;0.65;;;26.60;86.60;;;;;;4972134;28;20083;-48
2022/06/12 11:25:28;;;;;;;2.92;0.80;;;26.50;86.60;;;;;;5032084;28;20059;-48
2022/06/12 11:28:00;;;;;;;2.35;0.90;;;26.40;52.20;;;;;;5042320;28;20041;-48
2022/06/12 11:30:59;;;;;;;1.40;0.50;;;26.40;50.80;;;;;;5052951;28;20618;-48
2022/06/12 11:33:54;;;;;;;1.60;1.08;;;26.70;86.50;;;;;;5053012;28;20491;-47
2022/06/12 11:36:43;;;;;;;1.83;0.80;;;26.50;50.60;;;;;;5023618;28;20500;-48
2022/06/12 11:39:29;;;;;;;1.40;0.63;;;26.20;85.80;;;;;;5052895;28;20060;-48
2022/06/12 11:42:25;;;;;;;1.55;0.65;;;26.40;85.20;;;;;;5052834;28;20288;-48
2022/06/12 11:45:06;;;;;;;0.88;0.70;;;26.70;85.70;;;;;;5052994;28;20029;-49
2022/06/12 11:48:10;;;;;;;3.22;0.88;;;26.40;50.70;;;;;;5052727;28;20044;-48
2022/06/12 11:50:56;;;;;;;3.75;0.82;;;26.50;50.90;;;;;;5039972;28;20039;-48
2022/06/12 11:53:27;;;;;;;1.95;0.80;;;26.10;65.30;;;;;;5052969;28;20021;-48
2022/06/12 11:56:04;;;;;;;1.88;0.80;;;26.70;85.80;;;;;;5052487;28;20033;-48
2022/06/12 11:58:59;;;;;;;1.92;0.77;;;26.80;71.70;;;;;;5052521;28;20507;-48
2022/06/12 12:02:08;;;;;;;2.00;0.70;;;26.50;85.80;;;;;;5044768;28;20041;-48
2022/06/12 12:04:58;;;;;;;2.17;0.70;;;26.90;55.10;;;;;;5043261;28;20052;-49
2022/06/12 12:07:32;;;;;;;10.35;1.00;;;26.60;51.10;;;;;;5052442;28;20431;-49
2022/06/12 12:10:28;;;;;;;0.65;0.40;;;26.80;74.50;;;;;;5052571;28;20108;-49
2022/06/12 12:13:06;;;;;;;2.40;0.70;;;26.90;86.20;;;;;;5052251;28;20033;-48
2022/06/12 12:15:43;;;;;;;0.70;0.50;;;26.60;50.80;;;;;;5052251;28;20029;-49
2022/06/12 12:18:21;;;;;;;2.20;1.10;;;26.30;76.00;;;;;;5052124;28;20037;-50
2022/06/12 12:20:50;;;;;;;2.47;0.75;;;26.70;86.00;;;;;;5052221;28;20079;-50
2022/06/12 12:23:23;;;;;;;1.58;0.70;;;26.40;51.00;;;;;;5052216;28;20051;-50
2022/06/12 12:25:56;;;;;;;6.90;1.00;;;26.40;84.50;;;;;;5052106;28;20027;-50
2022/06/12 12:28:44;;;;;;;2.42;0.98;;;26.30;55.10;;;;;;5052332;28;20112;-49
2022/06/12 12:31:12;;;;;;;2.20;1.00;;;26.40;84.30;;;;;;5052313;28;20112;-50
2022/06/12 12:33:41;;;;;;;3.63;0.75;;;26.30;55.70;;;;;;5051286;28;20025;-50
2022/06/12 12:41:55;;;;;;;2.47;1.02;;;26.00;83.60;;;;;;5052267;28;20040;-49
2022/06/12 12:44:38;;;;;;;2.42;1.00;;;26.20;83.50;;;;;;5051973;28;20028;-49
2022/06/12 12:47:24;;;;;;;5.65;1.25;;;26.30;53.40;;;;;;5052010;28;20616;-49
2022/06/12 12:50:02;;;;;;;2.72;1.00;;;26.00;49.40;;;;;;5051951;28;20032;-49
2022/06/12 12:52:50;;;;;;;4.50;1.50;;;26.00;49.20;;;;;;5051894;28;20035;-50
2022/06/12 12:55:31;;;;;;;4.50;1.15;;;25.80;49.10;;;;;;5051830;28;20064;-49
2022/06/12 12:58:01;;;;;;;1.48;0.73;;;25.80;83.00;;;;;;5051735;28;20033;-49
2022/06/12 13:00:33;;;;;;;;;;;25.90;49.70;;;;;;5052175;28;20387;-52
2022/06/12 13:03:04;;;;;;;2.60;1.05;;;25.60;82.10;;;;;;5051498;28;19951;-49
2022/06/12 13:05:48;;;;;;;3.13;1.33;;;25.80;69.70;;;;;;5051774;28;20090;-51
2022/06/12 13:08:43;;;;;;;1.73;0.85;;;25.80;46.50;;;;;;5051754;28;20033;-50
2022/06/12 13:11:35;;;;;;;1.48;1.00;;;25.80;81.80;;;;;;5051742;28;20032;-49
2022/06/12 13:14:22;;;;;;;4.10;1.30;;;25.70;82.30;;;;;;5051668;28;20033;-50
2022/06/12 13:17:00;;;;;;;2.97;1.20;;;25.80;82.30;;;;;;5051888;28;20033;-50
2022/06/12 13:19:43;;;;;;;3.75;1.20;;;25.70;46.90;;;;;;5051619;28;20024;-49
2022/06/12 13:22:38;;;;;;;1.38;1.02;;;25.80;82.20;;;;;;5051839;28;20029;-50
2022/06/12 13:25:09;;;;;;;3.90;1.20;;;25.70;48.30;;;;;;5051709;28;20039;-49
2022/06/12 13:27:48;;;;;;;2.15;0.90;;;25.80;82.90;;;;;;5051800;28;20039;-49
2022/06/12 13:30:18;;;;;;;2.42;1.10;;;25.60;48.50;;;;;;5051584;28;20558;-49
2022/06/12 13:32:44;;;;;;;;;;;25.60;49.00;;;;;;5052246;28;20090;-49
2022/06/12 13:35:18;;;;;;;4.10;1.30;;;25.90;82.80;;;;;;5051569;28;20287;-49
2022/06/12 13:37:46;;;;;;;3.30;1.02;;;25.60;48.60;;;;;;5051377;28;20037;-49
2022/06/12 13:40:30;;;;;;;3.53;0.90;;;25.80;56.20;;;;;;5051412;28;20029;-51
2022/06/12 13:43:11;;;;;;;3.38;1.00;;;25.30;56.80;;;;;;5051534;28;20075;-48
2022/06/12 13:45:36;;;;;;;2.65;1.00;;;25.40;82.60;;;;;;5053497;28;20017;-50
2022/06/12 13:48:20;;;;;;;3.25;1.10;;;25.10;80.30;;;;;;5055218;28;20035;-50
2022/06/12 13:50:56;;;;;;;3.15;1.13;;;25.30;70.40;;;;;;5054890;28;20380;-50
2022/06/12 13:53:23;;;;;;;4.63;0.90;;;25.70;77.70;;;;;;5054857;28;20029;-49